Bogucar, Russia
Current Conditions -  °F | °C
As of 1:00 AM on Sunday 21 Dec 2014 (Local Time) from UUOO Reporting Station
Overcast Overcast  
Wind Chill: 31°   Ceiling: 3300
Heat Index: 37°   Visibility: 6mi
Dew Point: 36°   Wind: 9mph
Humidity: 93%   Direction: 270°W
Pressure: 29.68"   Gusts: NA
Location:  49.93°N, 40.57°E
Report Text: UUOO 202200Z 27004MPS 9999 OVC033 03/02 Q1005 NOSIG RMK30290148
Loading
Personal Weather Stations






























Interactive Weather Map New forecast layout! Learn more

10-Day Weather Forecast

Advertisements
Track Severe Weather on mobile